sensor_id;sensor_type;location;lat;lon;timestamp;pressure;altitude;pressure_sealevel;temperature;humidity
15694;BME280;7947;48.834;9.132;2023-03-20T00:00:37;98407.97;;;10.79;89.16
15694;BME280;7947;48.834;9.132;2023-03-20T00:03:40;98415.75;;;10.75;90.20
15694;BME280;7947;48.834;9.132;2023-03-20T00:06:43;98415.75;;;10.75;90.46
15694;BME280;7947;48.834;9.132;2023-03-20T00:09:46;98416.81;;;10.74;90.47
15694;BME280;7947;48.834;9.132;2023-03-20T00:12:49;98415.75;;;10.75;90.64
15694;BME280;7947;48.834;9.132;2023-03-20T00:15:54;98410.91;;;10.77;91.01
15694;BME280;7947;48.834;9.132;2023-03-20T00:18:57;98416.53;;;10.81;90.77
15694;BME280;7947;48.834;9.132;2023-03-20T00:22:00;98407.69;;;10.80;90.60
15694;BME280;7947;48.834;9.132;2023-03-20T00:25:03;98414.41;;;10.78;90.53
15694;BME280;7947;48.834;9.132;2023-03-20T00:28:29;98407.44;;;10.77;90.86
15694;BME280;7947;48.834;9.132;2023-03-20T00:31:35;98411.19;;;10.81;90.61
15694;BME280;7947;48.834;9.132;2023-03-20T00:34:38;98416.03;;;10.74;90.63
15694;BME280;7947;48.834;9.132;2023-03-20T00:37:41;98422.47;;;10.68;90.38
15694;BME280;7947;48.834;9.132;2023-03-20T00:40:44;98424.31;;;10.67;91.07
15694;BME280;7947;48.834;9.132;2023-03-20T00:43:48;98420.84;;;10.72;90.32
15694;BME280;7947;48.834;9.132;2023-03-20T00:46:56;98417.63;;;10.70;89.40
15694;BME280;7947;48.834;9.132;2023-03-20T00:49:59;98425.38;;;10.76;90.06
15694;BME280;7947;48.834;9.132;2023-03-20T00:53:03;98426.47;;;10.80;88.96
15694;BME280;7947;48.834;9.132;2023-03-20T00:56:24;98420.84;;;10.72;89.16
15694;BME280;7947;48.834;9.132;2023-03-20T00:59:32;98430.78;;;10.71;89.17
15694;BME280;7947;48.834;9.132;2023-03-20T01:02:39;98430.78;;;10.71;89.71
15694;BME280;7947;48.834;9.132;2023-03-20T01:05:42;98433.97;;;10.78;89.70
15694;BME280;7947;48.834;9.132;2023-03-20T01:08:45;98432.38;;;10.82;88.86
15694;BME280;7947;48.834;9.132;2023-03-20T01:11:49;98432.13;;;10.74;89.27
15694;BME280;7947;48.834;9.132;2023-03-20T01:14:55;98434.25;;;10.72;89.72
15694;BME280;7947;48.834;9.132;2023-03-20T01:18:00;98424.34;;;10.62;90.01
15694;BME280;7947;48.834;9.132;2023-03-20T01:21:03;98432.88;;;10.49;90.36
15694;BME280;7947;48.834;9.132;2023-03-20T01:24:06;98426.44;;;10.40;90.97
15694;BME280;7947;48.834;9.132;2023-03-20T01:27:11;98422.94;;;10.40;91.49
15694;BME280;7947;48.834;9.132;2023-03-20T01:30:19;98432.88;;;10.49;91.75
15694;BME280;7947;48.834;9.132;2023-03-20T01:33:23;98432.38;;;10.52;91.10
15694;BME280;7947;48.834;9.132;2023-03-20T01:36:27;98436.09;;;10.51;90.66
15694;BME280;7947;48.834;9.132;2023-03-20T01:39:31;98433.97;;;10.53;90.65
15694;BME280;7947;48.834;9.132;2023-03-20T01:42:35;98436.13;;;10.56;90.24
15694;BME280;7947;48.834;9.132;2023-03-20T01:45:45;98446.03;;;10.56;90.02
15694;BME280;7947;48.834;9.132;2023-03-20T01:49:00;98438.81;;;10.56;90.27
15694;BME280;7947;48.834;9.132;2023-03-20T01:52:06;98444.44;;;10.60;90.46
15694;BME280;7947;48.834;9.132;2023-03-20T01:55:08;98439.88;;;10.50;90.65
15694;BME280;7947;48.834;9.132;2023-03-20T01:58:14;98444.69;;;10.53;91.22
15694;BME280;7947;48.834;9.132;2023-03-20T02:01:19;98439.88;;;10.60;91.05
15694;BME280;7947;48.834;9.132;2023-03-20T02:04:25;98449.25;;;10.63;90.76
15694;BME280;7947;48.834;9.132;2023-03-20T02:07:31;98453.53;;;10.59;90.75
15694;BME280;7947;48.834;9.132;2023-03-20T02:10:35;98452.72;;;10.53;91.06
15694;BME280;7947;48.834;9.132;2023-03-20T02:13:38;98461.88;;;10.52;92.06
15694;BME280;7947;48.834;9.132;2023-03-20T02:16:41;98461.06;;;10.47;92.06
15694;BME280;7947;48.834;9.132;2023-03-20T02:19:54;98453.78;;;10.42;91.77
15694;BME280;7947;48.834;9.132;2023-03-20T02:23:18;98455.41;;;10.48;90.80
15694;BME280;7947;48.834;9.132;2023-03-20T02:26:38;98461.06;;;10.47;89.84
15694;BME280;7947;48.834;9.132;2023-03-20T02:33:44;98464.78;;;10.46;89.17
15694;BME280;7947;48.834;9.132;2023-03-20T02:40:41;98469.34;;;10.40;89.34
15694;BME280;7947;48.834;9.132;2023-03-20T02:43:51;98470.16;;;10.46;89.24
15694;BME280;7947;48.834;9.132;2023-03-20T02:47:02;98457.31;;;10.53;87.99
15694;BME280;7947;48.834;9.132;2023-03-20T02:50:11;98462.69;;;10.53;87.20
15694;BME280;7947;48.834;9.132;2023-03-20T02:53:25;98461.31;;;10.55;87.59
15694;BME280;7947;48.834;9.132;2023-03-20T02:56:37;98462.91;;;10.51;88.27
15694;BME280;7947;48.834;9.132;2023-03-20T02:59:48;98463.19;;;10.45;88.44
15694;BME280;7947;48.834;9.132;2023-03-20T03:03:00;98471.25;;;10.45;88.89
15694;BME280;7947;48.834;9.132;2023-03-20T03:06:10;98466.13;;;10.43;88.67
15694;BME280;7947;48.834;9.132;2023-03-20T03:09:19;98464.25;;;10.39;89.21
15694;BME280;7947;48.834;9.132;2023-03-20T03:12:29;98469.34;;;10.35;89.31
15694;BME280;7947;48.834;9.132;2023-03-20T03:15:35;98471.47;;;10.33;89.22
15694;BME280;7947;48.834;9.132;2023-03-20T03:18:41;98474.41;;;10.32;89.15
15694;BME280;7947;48.834;9.132;2023-03-20T03:21:46;98472.53;;;10.32;88.80
15694;BME280;7947;48.834;9.132;2023-03-20T03:24:50;98477.63;;;10.34;88.62
15694;BME280;7947;48.834;9.132;2023-03-20T03:28:00;98483.53;;;10.31;88.73
15694;BME280;7947;48.834;9.132;2023-03-20T03:31:06;98481.94;;;10.30;88.37
15694;BME280;7947;48.834;9.132;2023-03-20T03:34:12;98475.75;;;10.29;88.55
15694;BME280;7947;48.834;9.132;2023-03-20T03:37:23;98483.78;;;10.29;88.41
15694;BME280;7947;48.834;9.132;2023-03-20T03:40:33;98485.97;;;10.37;87.85
15694;BME280;7947;48.834;9.132;2023-03-20T03:43:43;98485.69;;;10.44;87.55
15694;BME280;7947;48.834;9.132;2023-03-20T03:46:52;98482.75;;;10.40;87.91
15694;BME280;7947;48.834;9.132;2023-03-20T03:49:58;98490.50;;;10.37;87.24
15694;BME280;7947;48.834;9.132;2023-03-20T03:53:07;98488.88;;;10.36;87.58
15694;BME280;7947;48.834;9.132;2023-03-20T03:56:12;98484.59;;;10.35;87.67
15694;BME280;7947;48.834;9.132;2023-03-20T03:59:23;98491.88;;;10.44;87.35
15694;BME280;7947;48.834;9.132;2023-03-20T04:02:28;98492.41;;;10.46;86.41
15694;BME280;7947;48.834;9.132;2023-03-20T04:05:31;98491.06;;;10.39;87.34
15694;BME280;7947;48.834;9.132;2023-03-20T04:08:39;98492.38;;;10.36;87.82
15694;BME280;7947;48.834;9.132;2023-03-20T04:11:42;98506.84;;;10.30;88.04
15694;BME280;7947;48.834;9.132;2023-03-20T04:14:50;98510.06;;;10.32;88.68
15694;BME280;7947;48.834;9.132;2023-03-20T04:17:53;98504.44;;;10.34;88.57
15694;BME280;7947;48.834;9.132;2023-03-20T04:20:56;98492.38;;;10.31;88.77
15694;BME280;7947;48.834;9.132;2023-03-20T04:23:59;98499.88;;;10.29;88.88
15694;BME280;7947;48.834;9.132;2023-03-20T04:27:04;98495.56;;;10.28;89.04
15694;BME280;7947;48.834;9.132;2023-03-20T04:30:10;98489.38;;;10.18;89.20
15694;BME280;7947;48.834;9.132;2023-03-20T04:33:13;98494.16;;;10.11;89.40
15694;BME280;7947;48.834;9.132;2023-03-20T04:36:17;98489.88;;;10.10;89.58
15694;BME280;7947;48.834;9.132;2023-03-20T04:39:19;98487.75;;;10.17;89.37
15694;BME280;7947;48.834;9.132;2023-03-20T04:42:22;98486.97;;;10.21;89.06
15694;BME280;7947;48.834;9.132;2023-03-20T04:45:27;98492.34;;;10.26;88.73
15694;BME280;7947;48.834;9.132;2023-03-20T04:48:29;98493.69;;;10.24;88.14
15694;BME280;7947;48.834;9.132;2023-03-20T04:51:32;98500.94;;;10.23;87.55
15694;BME280;7947;48.834;9.132;2023-03-20T04:54:35;98506.84;;;10.25;88.00
15694;BME280;7947;48.834;9.132;2023-03-20T04:57:38;98503.88;;;10.22;87.67
15694;BME280;7947;48.834;9.132;2023-03-20T05:00:42;98511.59;;;10.18;87.71
15694;BME280;7947;48.834;9.132;2023-03-20T05:03:45;98513.25;;;10.19;87.98
15694;BME280;7947;48.834;9.132;2023-03-20T05:06:48;98514.00;;;10.15;88.44
15694;BME280;7947;48.834;9.132;2023-03-20T05:09:51;98522.28;;;10.08;88.83
15694;BME280;7947;48.834;9.132;2023-03-20T05:12:54;98526.31;;;10.11;88.62
15694;BME280;7947;48.834;9.132;2023-03-20T05:15:58;98527.41;;;10.10;88.89
15694;BME280;7947;48.834;9.132;2023-03-20T05:19:01;98528.69;;;10.07;89.05
15694;BME280;7947;48.834;9.132;2023-03-20T05:22:04;98530.53;;;10.01;89.45
15694;BME280;7947;48.834;9.132;2023-03-20T05:25:09;98536.19;;;10.05;89.36
15694;BME280;7947;48.834;9.132;2023-03-20T05:28:12;98537.22;;;9.99;89.54
15694;BME280;7947;48.834;9.132;2023-03-20T05:31:16;98524.63;;;9.99;89.94
15694;BME280;7947;48.834;9.132;2023-03-20T05:34:19;98521.28;;;10.14;89.84
15694;BME280;7947;48.834;9.132;2023-03-20T05:37:22;98512.69;;;10.12;89.15
15694;BME280;7947;48.834;9.132;2023-03-20T05:40:24;98523.41;;;10.17;89.43
15694;BME280;7947;48.834;9.132;2023-03-20T05:43:27;98525.53;;;10.15;89.48
15694;BME280;7947;48.834;9.132;2023-03-20T05:46:31;98532.28;;;10.23;89.34
15694;BME280;7947;48.834;9.132;2023-03-20T05:49:34;98525.56;;;10.20;89.75
15694;BME280;7947;48.834;9.132;2023-03-20T05:52:37;98533.34;;;10.22;89.45
15694;BME280;7947;48.834;9.132;2023-03-20T05:55:40;98533.06;;;10.18;89.71
15694;BME280;7947;48.834;9.132;2023-03-20T05:58:45;98536.59;;;10.29;89.98
15694;BME280;7947;48.834;9.132;2023-03-20T06:01:49;98541.13;;;10.23;89.57
15694;BME280;7947;48.834;9.132;2023-03-20T06:04:52;98546.50;;;10.23;89.77
15694;BME280;7947;48.834;9.132;2023-03-20T06:07:55;98550.78;;;10.24;89.69
15694;BME280;7947;48.834;9.132;2023-03-20T06:10:57;98549.72;;;10.25;90.42
15694;BME280;7947;48.834;9.132;2023-03-20T06:14:00;98554.53;;;10.28;90.00
15694;BME280;7947;48.834;9.132;2023-03-20T06:17:04;98560.72;;;10.29;90.34
15694;BME280;7947;48.834;9.132;2023-03-20T06:20:09;98559.38;;;10.31;89.42
15694;BME280;7947;48.834;9.132;2023-03-20T06:23:11;98564.47;;;10.33;89.08
15694;BME280;7947;48.834;9.132;2023-03-20T06:26:14;98554.56;;;10.33;88.88
15694;BME280;7947;48.834;9.132;2023-03-20T06:29:17;98555.91;;;10.36;89.25
15694;BME280;7947;48.834;9.132;2023-03-20T06:32:21;98545.50;;;10.39;89.13
15694;BME280;7947;48.834;9.132;2023-03-20T06:35:24;98555.97;;;10.51;88.34
15694;BME280;7947;48.834;9.132;2023-03-20T06:38:31;98540.97;;;10.55;87.85
15694;BME280;7947;48.834;9.132;2023-03-20T06:41:34;98532.13;;;10.59;87.73
15694;BME280;7947;48.834;9.132;2023-03-20T06:44:37;98541.78;;;10.65;87.74
15694;BME280;7947;48.834;9.132;2023-03-20T06:47:42;98539.94;;;10.71;88.03
15694;BME280;7947;48.834;9.132;2023-03-20T06:50:45;98547.19;;;10.80;87.62
15694;BME280;7947;48.834;9.132;2023-03-20T06:53:47;98545.63;;;10.89;85.82
15694;BME280;7947;48.834;9.132;2023-03-20T06:56:51;98538.38;;;11.00;84.58
15694;BME280;7947;48.834;9.132;2023-03-20T06:59:53;98543.75;;;11.10;83.83
15694;BME280;7947;48.834;9.132;2023-03-20T07:02:58;98553.69;;;11.15;84.13
15694;BME280;7947;48.834;9.132;2023-03-20T07:06:03;98558.78;;;11.31;81.84
15694;BME280;7947;48.834;9.132;2023-03-20T07:09:05;98559.84;;;11.45;80.85
15694;BME280;7947;48.834;9.132;2023-03-20T07:12:10;98555.53;;;11.59;80.33
15694;BME280;7947;48.834;9.132;2023-03-20T07:15:15;98561.72;;;11.75;77.16
15694;BME280;7947;48.834;9.132;2023-03-20T07:18:19;98566.84;;;11.76;77.89
15694;BME280;7947;48.834;9.132;2023-03-20T07:21:22;98579.44;;;11.96;75.59
15694;BME280;7947;48.834;9.132;2023-03-20T07:24:25;98584.28;;;11.84;76.75
15694;BME280;7947;48.834;9.132;2023-03-20T07:27:28;98584.84;;;11.71;77.95
15694;BME280;7947;48.834;9.132;2023-03-20T07:30:31;98582.69;;;11.63;78.61
15694;BME280;7947;48.834;9.132;2023-03-20T07:33:35;98576.50;;;11.62;78.20
15694;BME280;7947;48.834;9.132;2023-03-20T07:36:38;98572.72;;;11.63;77.73
15694;BME280;7947;48.834;9.132;2023-03-20T07:39:42;98578.41;;;11.67;78.64
15694;BME280;7947;48.834;9.132;2023-03-20T07:42:45;98582.69;;;11.73;79.59
15694;BME280;7947;48.834;9.132;2023-03-20T07:45:48;98584.81;;;11.81;78.59
15694;BME280;7947;48.834;9.132;2023-03-20T07:48:52;98580.53;;;11.85;77.63
15694;BME280;7947;48.834;9.132;2023-03-20T07:51:57;98584.56;;;11.88;77.79
15694;BME280;7947;48.834;9.132;2023-03-20T07:55:00;98589.13;;;11.92;77.50
15694;BME280;7947;48.834;9.132;2023-03-20T07:58:02;98581.56;;;11.99;77.89
15694;BME280;7947;48.834;9.132;2023-03-20T08:01:06;98574.56;;;12.13;75.37
15694;BME280;7947;48.834;9.132;2023-03-20T08:04:10;98582.56;;;12.23;75.80
15694;BME280;7947;48.834;9.132;2023-03-20T08:07:13;98580.94;;;12.32;75.07
15694;BME280;7947;48.834;9.132;2023-03-20T08:10:16;98571.78;;;12.38;74.14
15694;BME280;7947;48.834;9.132;2023-03-20T08:13:19;98573.91;;;12.41;74.49
15694;BME280;7947;48.834;9.132;2023-03-20T08:16:21;98577.97;;;12.34;74.44
15694;BME280;7947;48.834;9.132;2023-03-20T08:19:26;98584.44;;;12.28;75.34
15694;BME280;7947;48.834;9.132;2023-03-20T08:22:29;98580.69;;;12.24;74.14
15694;BME280;7947;48.834;9.132;2023-03-20T08:25:32;98588.22;;;12.27;73.90
15694;BME280;7947;48.834;9.132;2023-03-20T08:28:35;98592.53;;;12.23;73.88
15694;BME280;7947;48.834;9.132;2023-03-20T08:31:48;98584.16;;;12.34;73.58
15694;BME280;7947;48.834;9.132;2023-03-20T08:34:52;98590.28;;;12.45;73.79
15694;BME280;7947;48.834;9.132;2023-03-20T08:37:56;98582.75;;;12.47;73.89
15694;BME280;7947;48.834;9.132;2023-03-20T08:40:59;98576.53;;;12.56;73.61
15694;BME280;7947;48.834;9.132;2023-03-20T08:44:01;98584.78;;;12.75;72.35
15694;BME280;7947;48.834;9.132;2023-03-20T08:47:04;98580.41;;;12.84;72.10
15694;BME280;7947;48.834;9.132;2023-03-20T08:50:10;98578.75;;;12.93;71.69
15694;BME280;7947;48.834;9.132;2023-03-20T08:53:14;98571.97;;;13.01;72.11
15694;BME280;7947;48.834;9.132;2023-03-20T08:56:17;98578.94;;;13.12;71.01
15694;BME280;7947;48.834;9.132;2023-03-20T08:59:20;98570.78;;;13.22;71.13
15694;BME280;7947;48.834;9.132;2023-03-20T09:02:23;98577.41;;;13.34;69.29
15694;BME280;7947;48.834;9.132;2023-03-20T09:05:27;98585.00;;;13.61;66.53
15694;BME280;7947;48.834;9.132;2023-03-20T09:08:32;98582.88;;;13.58;67.30
15694;BME280;7947;48.834;9.132;2023-03-20T09:11:35;98585.28;;;13.59;66.92
15694;BME280;7947;48.834;9.132;2023-03-20T09:14:38;98590.59;;;13.70;66.07
15694;BME280;7947;48.834;9.132;2023-03-20T09:17:42;98590.50;;;13.80;67.62
15694;BME280;7947;48.834;9.132;2023-03-20T09:20:46;98589.25;;;13.96;66.81
15694;BME280;7947;48.834;9.132;2023-03-20T09:23:49;98586.53;;;14.01;66.26
15694;BME280;7947;48.834;9.132;2023-03-20T09:26:52;98581.38;;;14.04;66.60
15694;BME280;7947;48.834;9.132;2023-03-20T09:29:55;98584.00;;;14.09;64.67
15694;BME280;7947;48.834;9.132;2023-03-20T09:32:58;98586.44;;;14.11;64.30
15694;BME280;7947;48.834;9.132;2023-03-20T09:36:03;98580.34;;;14.24;65.05
15694;BME280;7947;48.834;9.132;2023-03-20T09:39:05;98585.88;;;14.37;66.63
15694;BME280;7947;48.834;9.132;2023-03-20T09:42:18;98583.34;;;14.46;65.80
15694;BME280;7947;48.834;9.132;2023-03-20T09:45:32;98589.13;;;14.58;65.07
15694;BME280;7947;48.834;9.132;2023-03-20T09:48:40;98586.38;;;14.63;63.29
15694;BME280;7947;48.834;9.132;2023-03-20T09:51:50;98589.22;;;14.72;63.27
15694;BME280;7947;48.834;9.132;2023-03-20T09:54:57;98593.16;;;14.79;62.15
15694;BME280;7947;48.834;9.132;2023-03-20T09:58:06;98598.56;;;14.79;62.08
15694;BME280;7947;48.834;9.132;2023-03-20T10:01:13;98583.91;;;14.67;63.38
15694;BME280;7947;48.834;9.132;2023-03-20T10:04:17;98590.69;;;14.64;60.93
15694;BME280;7947;48.834;9.132;2023-03-20T10:07:22;98590.66;;;14.45;63.80
15694;BME280;7947;48.834;9.132;2023-03-20T10:10:31;98592.19;;;14.28;65.69
15694;BME280;7947;48.834;9.132;2023-03-20T10:13:49;98603.91;;;14.13;66.18
15694;BME280;7947;48.834;9.132;2023-03-20T10:17:11;98598.22;;;13.91;67.45
15694;BME280;7947;48.834;9.132;2023-03-20T10:20:24;98599.38;;;13.80;68.04
15694;BME280;7947;48.834;9.132;2023-03-20T10:23:34;98608.13;;;13.67;68.34
15694;BME280;7947;48.834;9.132;2023-03-20T10:26:38;98606.63;;;13.56;69.02
15694;BME280;7947;48.834;9.132;2023-03-20T10:29:48;98604.81;;;13.46;68.88
15694;BME280;7947;48.834;9.132;2023-03-20T10:33:00;98603.00;;;13.37;70.31
15694;BME280;7947;48.834;9.132;2023-03-20T10:36:16;98600.31;;;13.32;68.91
15694;BME280;7947;48.834;9.132;2023-03-20T10:39:35;98599.28;;;13.28;68.26
15694;BME280;7947;48.834;9.132;2023-03-20T10:42:42;98590.38;;;13.32;68.87
15694;BME280;7947;48.834;9.132;2023-03-20T10:45:48;98598.91;;;13.44;69.24
15694;BME280;7947;48.834;9.132;2023-03-20T10:48:57;98595.63;;;13.47;70.06
15694;BME280;7947;48.834;9.132;2023-03-20T10:52:03;98598.22;;;13.63;69.46
15694;BME280;7947;48.834;9.132;2023-03-20T10:55:14;98589.25;;;13.67;70.69
15694;BME280;7947;48.834;9.132;2023-03-20T10:58:20;98587.53;;;13.81;71.43
15694;BME280;7947;48.834;9.132;2023-03-20T11:01:24;98589.22;;;14.01;70.15
15694;BME280;7947;48.834;9.132;2023-03-20T11:04:27;98584.88;;;14.05;69.35
15694;BME280;7947;48.834;9.132;2023-03-20T11:07:31;98595.69;;;14.00;69.80
15694;BME280;7947;48.834;9.132;2023-03-20T11:10:38;98578.97;;;14.03;69.84
15694;BME280;7947;48.834;9.132;2023-03-20T11:13:42;98587.28;;;14.06;69.84
15694;BME280;7947;48.834;9.132;2023-03-20T11:16:50;98586.19;;;14.07;67.86
15694;BME280;7947;48.834;9.132;2023-03-20T11:19:53;98587.28;;;14.06;67.75
15694;BME280;7947;48.834;9.132;2023-03-20T11:23:06;98594.38;;;13.97;68.20
15694;BME280;7947;48.834;9.132;2023-03-20T11:26:13;98591.78;;;13.87;68.06
15694;BME280;7947;48.834;9.132;2023-03-20T11:29:22;98591.28;;;13.80;69.01
15694;BME280;7947;48.834;9.132;2023-03-20T11:32:30;98592.34;;;13.84;67.79
15694;BME280;7947;48.834;9.132;2023-03-20T11:35:33;98588.06;;;13.83;68.39
15694;BME280;7947;48.834;9.132;2023-03-20T11:38:43;98591.34;;;13.75;68.06
15694;BME280;7947;48.834;9.132;2023-03-20T11:41:50;98586.47;;;13.77;68.63
15694;BME280;7947;48.834;9.132;2023-03-20T11:44:58;98577.88;;;13.75;68.64
15694;BME280;7947;48.834;9.132;2023-03-20T11:48:02;98577.59;;;13.77;68.58
15694;BME280;7947;48.834;9.132;2023-03-20T11:51:08;98584.53;;;13.83;67.82
15694;BME280;7947;48.834;9.132;2023-03-20T11:54:14;98582.28;;;13.95;65.74
15694;BME280;7947;48.834;9.132;2023-03-20T11:57:30;98572.97;;;14.06;65.11
15694;BME280;7947;48.834;9.132;2023-03-20T12:00:36;98573.06;;;14.24;64.45
15694;BME280;7947;48.834;9.132;2023-03-20T12:03:43;98576.69;;;14.38;63.86
15694;BME280;7947;48.834;9.132;2023-03-20T12:06:50;98571.91;;;14.54;62.44
15694;BME280;7947;48.834;9.132;2023-03-20T12:09:56;98567.50;;;14.63;61.03
15694;BME280;7947;48.834;9.132;2023-03-20T12:13:04;98574.41;;;14.69;59.94
15694;BME280;7947;48.834;9.132;2023-03-20T12:16:13;98567.53;;;14.58;61.56
15694;BME280;7947;48.834;9.132;2023-03-20T12:19:19;98569.44;;;14.58;62.94
15694;BME280;7947;48.834;9.132;2023-03-20T12:22:25;98571.34;;;14.57;62.43
15694;BME280;7947;48.834;9.132;2023-03-20T12:25:35;98552.88;;;14.45;59.85
15694;BME280;7947;48.834;9.132;2023-03-20T12:28:46;98553.72;;;14.41;60.72
15694;BME280;7947;48.834;9.132;2023-03-20T12:31:55;98543.16;;;14.44;62.04
15694;BME280;7947;48.834;9.132;2023-03-20T12:35:04;98550.78;;;14.61;60.60
15694;BME280;7947;48.834;9.132;2023-03-20T12:38:19;98536.47;;;14.61;61.26
15694;BME280;7947;48.834;9.132;2023-03-20T12:41:28;98533.78;;;14.61;60.12
15694;BME280;7947;48.834;9.132;2023-03-20T12:44:37;98544.47;;;14.47;61.85
15694;BME280;7947;48.834;9.132;2023-03-20T12:48:11;98537.63;;;14.36;61.95
15694;BME280;7947;48.834;9.132;2023-03-20T12:51:22;98536.88;;;14.25;62.25
15694;BME280;7947;48.834;9.132;2023-03-20T12:54:43;98542.06;;;14.22;62.82
15694;BME280;7947;48.834;9.132;2023-03-20T12:58:00;98529.03;;;14.29;63.54
15694;BME280;7947;48.834;9.132;2023-03-20T13:01:10;98529.22;;;14.37;62.36
15694;BME280;7947;48.834;9.132;2023-03-20T13:04:29;98528.59;;;14.64;62.53
15694;BME280;7947;48.834;9.132;2023-03-20T13:07:57;98512.34;;;15.20;58.96
15694;BME280;7947;48.834;9.132;2023-03-20T13:11:09;98516.31;;;15.41;59.09
15694;BME280;7947;48.834;9.132;2023-03-20T13:14:19;98509.59;;;15.25;58.70
15694;BME280;7947;48.834;9.132;2023-03-20T13:17:32;98515.16;;;15.15;59.54
15694;BME280;7947;48.834;9.132;2023-03-20T13:20:45;98507.25;;;15.18;58.16
15694;BME280;7947;48.834;9.132;2023-03-20T13:23:56;98506.44;;;15.18;58.95
15694;BME280;7947;48.834;9.132;2023-03-20T13:27:18;98499.25;;;15.13;58.85
15694;BME280;7947;48.834;9.132;2023-03-20T13:30:27;98495.63;;;15.18;58.63
15694;BME280;7947;48.834;9.132;2023-03-20T13:33:42;98492.88;;;15.23;57.11
15694;BME280;7947;48.834;9.132;2023-03-20T13:36:58;98481.25;;;15.55;56.33
15694;BME280;7947;48.834;9.132;2023-03-20T13:40:25;98485.50;;;15.88;57.17
15694;BME280;7947;48.834;9.132;2023-03-20T13:43:32;98477.38;;;15.88;55.37
15694;BME280;7947;48.834;9.132;2023-03-20T13:46:39;98470.97;;;15.97;53.78
15694;BME280;7947;48.834;9.132;2023-03-20T13:49:47;98466.97;;;15.95;53.51
15694;BME280;7947;48.834;9.132;2023-03-20T13:52:57;98468.88;;;15.67;54.38
15694;BME280;7947;48.834;9.132;2023-03-20T13:56:09;98463.63;;;15.44;54.83
15694;BME280;7947;48.834;9.132;2023-03-20T13:59:29;98467.38;;;15.29;55.71
15694;BME280;7947;48.834;9.132;2023-03-20T14:02:48;98461.84;;;15.20;56.71
15694;BME280;7947;48.834;9.132;2023-03-20T14:05:54;98462.13;;;15.19;58.13
15694;BME280;7947;48.834;9.132;2023-03-20T14:08:58;98458.13;;;15.16;57.41
15694;BME280;7947;48.834;9.132;2023-03-20T14:12:04;98458.94;;;15.17;56.60
15694;BME280;7947;48.834;9.132;2023-03-20T14:15:10;98458.72;;;15.13;57.89
15694;BME280;7947;48.834;9.132;2023-03-20T14:18:15;98449.09;;;15.07;57.77
15694;BME280;7947;48.834;9.132;2023-03-20T14:21:22;98447.16;;;15.08;57.40
15694;BME280;7947;48.834;9.132;2023-03-20T14:24:26;98454.88;;;15.01;57.84
15694;BME280;7947;48.834;9.132;2023-03-20T14:27:34;98449.09;;;15.07;57.31
15694;BME280;7947;48.834;9.132;2023-03-20T14:30:45;98453.34;;;15.27;55.24
15694;BME280;7947;48.834;9.132;2023-03-20T14:33:57;98457.78;;;15.36;56.64
15694;BME280;7947;48.834;9.132;2023-03-20T14:37:03;98452.06;;;15.38;56.83
15694;BME280;7947;48.834;9.132;2023-03-20T14:40:14;98446.97;;;15.36;54.68
15694;BME280;7947;48.834;9.132;2023-03-20T14:43:31;98448.47;;;15.29;53.38
15694;BME280;7947;48.834;9.132;2023-03-20T14:46:47;98444.53;;;15.35;52.55
15694;BME280;7947;48.834;9.132;2023-03-20T14:49:56;98445.97;;;15.32;51.42
15694;BME280;7947;48.834;9.132;2023-03-20T14:53:13;98444.00;;;15.19;52.64
15694;BME280;7947;48.834;9.132;2023-03-20T14:56:25;98439.31;;;15.11;53.77
15694;BME280;7947;48.834;9.132;2023-03-20T14:59:31;98442.88;;;15.07;54.35
15694;BME280;7947;48.834;9.132;2023-03-20T15:02:35;98445.69;;;15.02;53.83
15694;BME280;7947;48.834;9.132;2023-03-20T15:05:38;98441.00;;;14.89;54.44
15694;BME280;7947;48.834;9.132;2023-03-20T15:08:44;98441.91;;;14.84;56.32
15694;BME280;7947;48.834;9.132;2023-03-20T15:11:49;98433.00;;;14.84;56.66
15694;BME280;7947;48.834;9.132;2023-03-20T15:14:55;98439.41;;;14.88;55.11
15694;BME280;7947;48.834;9.132;2023-03-20T15:18:05;98436.16;;;14.72;56.83
15694;BME280;7947;48.834;9.132;2023-03-20T15:21:13;98431.94;;;14.66;57.55
15694;BME280;7947;48.834;9.132;2023-03-20T15:24:20;98425.16;;;14.69;57.98
15694;BME280;7947;48.834;9.132;2023-03-20T15:27:25;98429.88;;;14.77;57.20
15694;BME280;7947;48.834;9.132;2023-03-20T15:30:31;98428.94;;;14.68;57.46
15694;BME280;7947;48.834;9.132;2023-03-20T15:33:38;98426.16;;;14.54;57.79
15694;BME280;7947;48.834;9.132;2023-03-20T15:36:43;98435.00;;;14.41;59.78
15694;BME280;7947;48.834;9.132;2023-03-20T15:39:48;98435.72;;;14.46;57.66
15694;BME280;7947;48.834;9.132;2023-03-20T15:42:52;98435.34;;;14.34;59.10
15694;BME280;7947;48.834;9.132;2023-03-20T15:45:56;98444.13;;;14.21;60.10
15694;BME280;7947;48.834;9.132;2023-03-20T15:49:20;98440.31;;;14.27;59.29
15694;BME280;7947;48.834;9.132;2023-03-20T15:52:28;98441.44;;;14.21;59.99
15694;BME280;7947;48.834;9.132;2023-03-20T15:55:34;98441.44;;;14.21;61.14
15694;BME280;7947;48.834;9.132;2023-03-20T15:58:37;98442.47;;;14.25;59.12
15694;BME280;7947;48.834;9.132;2023-03-20T16:01:40;98445.16;;;14.25;58.22
15694;BME280;7947;48.834;9.132;2023-03-20T16:04:45;98434.47;;;14.20;58.65
15694;BME280;7947;48.834;9.132;2023-03-20T16:07:49;98439.84;;;14.20;57.01
15694;BME280;7947;48.834;9.132;2023-03-20T16:10:56;98448.63;;;14.07;57.86
15694;BME280;7947;48.834;9.132;2023-03-20T16:13:59;98439.69;;;14.12;57.15
15694;BME280;7947;48.834;9.132;2023-03-20T16:17:03;98442.59;;;14.15;56.22
15694;BME280;7947;48.834;9.132;2023-03-20T16:20:12;98438.88;;;14.11;56.50
15694;BME280;7947;48.834;9.132;2023-03-20T16:23:22;98442.38;;;14.12;57.58
15694;BME280;7947;48.834;9.132;2023-03-20T16:26:30;98430.72;;;14.16;56.58
15694;BME280;7947;48.834;9.132;2023-03-20T16:29:33;98430.34;;;14.04;56.69
15694;BME280;7947;48.834;9.132;2023-03-20T16:32:37;98440.69;;;13.97;56.63
15694;BME280;7947;48.834;9.132;2023-03-20T16:35:43;98436.38;;;13.96;56.76
15694;BME280;7947;48.834;9.132;2023-03-20T16:38:54;98429.81;;;13.84;57.34
15694;BME280;7947;48.834;9.132;2023-03-20T16:42:09;98431.69;;;13.83;57.81
15694;BME280;7947;48.834;9.132;2023-03-20T16:45:22;98433.88;;;13.81;58.65
15694;BME280;7947;48.834;9.132;2023-03-20T16:48:29;98436.69;;;13.71;60.26